Time;durP1;ratioP1;P1;durP2;ratioP2;P2;SDS_P1;SDS_P2;PMS_P1;PMS_P2;Temp;Humidity;BMP_temperature;BMP_pressure;BME280_temperature;BME280_humidity;BME280_pressure;Samples;Min_cycle;Max_cycle;Signal;HPM_P1;HPM_P2
2024/02/27 00:02:21;;;;;;;10.13;6.27;;;5.60;91.00;;;;;;5011464;28;20209;-89
2024/02/27 00:04:48;;;;;;;8.90;6.90;;;5.60;90.90;;;;;;5028413;28;20289;-89
2024/02/27 00:07:15;;;;;;;10.07;6.97;;;5.60;90.90;;;;;;5020939;28;20690;-89
2024/02/27 00:09:44;;;;;;;8.55;6.60;;;5.70;90.70;;;;;;5003302;28;20553;-88
2024/02/27 00:12:12;;;;;;;10.17;6.90;;;5.70;90.50;;;;;;5019520;28;20226;-90
2024/02/27 00:14:39;;;;;;;8.13;6.87;;;5.70;90.20;;;;;;5027211;28;20283;-88
2024/02/27 00:17:06;;;;;;;9.83;6.80;;;5.70;90.30;;;;;;5020853;28;20203;-89
2024/02/27 00:19:33;;;;;;;9.40;6.83;;;5.60;90.30;;;;;;5028887;28;20229;-88
2024/02/27 00:22:00;;;;;;;10.33;6.97;;;5.60;90.70;;;;;;5010557;28;20568;-89
2024/02/27 00:24:27;;;;;;;10.23;7.00;;;5.50;90.80;;;;;;5011723;28;20972;-89
2024/02/27 00:26:54;;;;;;;8.57;6.87;;;5.50;91.00;;;;;;5000711;28;20207;-89
2024/02/27 00:29:23;;;;;;;9.60;7.27;;;5.50;91.10;;;;;;5008103;28;20199;-89
2024/02/27 00:31:50;;;;;;;11.87;7.67;;;5.50;91.20;;;;;;5027504;28;20233;-89
2024/02/27 00:34:17;;;;;;;10.17;7.47;;;5.50;91.40;;;;;;5022608;28;20727;-91
2024/02/27 00:36:44;;;;;;;10.40;7.60;;;5.50;90.90;;;;;;5005970;28;20206;-89
2024/02/27 00:39:11;;;;;;;10.45;7.55;;;5.60;90.80;;;;;;5025164;28;20195;-89
2024/02/27 00:41:46;;;;;;;10.80;6.87;;;5.50;90.80;;;;;;4993673;28;20207;-88
2024/02/27 00:44:15;;;;;;;10.97;7.60;;;5.50;90.70;;;;;;5020683;28;20209;-89
2024/02/27 00:46:43;;;;;;;11.53;6.80;;;5.50;90.70;;;;;;4994799;28;20206;-89
2024/02/27 00:49:11;;;;;;;9.30;6.73;;;5.50;90.70;;;;;;5020947;28;20203;-89
2024/02/27 00:51:38;;;;;;;9.13;7.20;;;5.50;90.70;;;;;;5028663;28;20226;-89
2024/02/27 00:54:05;;;;;;;8.93;7.17;;;5.60;90.40;;;;;;5010062;28;20689;-89
2024/02/27 00:56:31;;;;;;;10.53;7.57;;;5.60;90.30;;;;;;5011911;28;20712;-89
2024/02/27 00:58:58;;;;;;;9.60;7.63;;;5.60;89.40;;;;;;5033456;28;20194;-89
2024/02/27 01:01:25;;;;;;;10.30;7.73;;;5.60;89.40;;;;;;5033570;28;20228;-89
2024/02/27 01:03:56;;;;;;;9.50;7.60;;;5.60;89.40;;;;;;5011434;28;20215;-89
2024/02/27 01:06:23;;;;;;;10.37;7.87;;;5.50;89.30;;;;;;5019489;28;20265;-88
2024/02/27 01:08:50;;;;;;;10.23;8.10;;;5.50;89.50;;;;;;5024486;28;20221;-88
2024/02/27 01:11:16;;;;;;;12.53;7.97;;;5.40;89.80;;;;;;5030171;28;20232;-89
2024/02/27 01:13:43;;;;;;;10.87;7.73;;;5.50;90.20;;;;;;5026832;28;20202;-89
2024/02/27 01:16:10;;;;;;;11.07;8.13;;;5.50;89.30;;;;;;5017246;28;20199;-89
2024/02/27 01:18:37;;;;;;;12.47;8.07;;;5.50;89.30;;;;;;5029670;28;20203;-89
2024/02/27 01:21:06;;;;;;;11.13;8.50;;;5.40;89.20;;;;;;5013134;28;20202;-89
2024/02/27 01:23:33;;;;;;;10.30;7.43;;;5.40;89.20;;;;;;4995971;28;20203;-88
2024/02/27 01:26:00;;;;;;;10.37;7.30;;;5.40;89.20;;;;;;4997533;28;20703;-88
2024/02/27 01:28:27;;;;;;;9.30;7.60;;;5.40;89.20;;;;;;5025373;28;20208;-89
2024/02/27 01:30:54;;;;;;;13.47;8.27;;;5.50;89.30;;;;;;5032741;28;20206;-89
2024/02/27 01:33:21;;;;;;;10.80;8.10;;;5.30;89.20;;;;;;5033928;28;20205;-88
2024/02/27 01:35:49;;;;;;;12.00;7.77;;;5.40;89.30;;;;;;5028490;28;20207;-89
2024/02/27 01:38:18;;;;;;;12.10;8.20;;;5.40;89.20;;;;;;5001611;28;20653;-88
2024/02/27 01:40:45;;;;;;;11.00;7.53;;;5.30;89.10;;;;;;5014876;28;20665;-89
2024/02/27 01:43:22;;;;;;;11.13;8.13;;;5.20;89.10;;;;;;5013632;28;20221;-89
2024/02/27 01:45:51;;;;;;;9.23;7.67;;;5.20;89.10;;;;;;5029572;28;20202;-89
2024/02/27 01:48:18;;;;;;;11.07;7.97;;;5.10;89.00;;;;;;5030532;28;20194;-88
2024/02/27 01:50:45;;;;;;;11.77;8.43;;;5.10;90.00;;;;;;5009467;28;20198;-89
2024/02/27 01:53:13;;;;;;;10.80;8.27;;;5.20;90.10;;;;;;5033095;28;20230;-90
2024/02/27 01:55:42;;;;;;;10.83;8.83;;;5.20;89.10;;;;;;5032762;28;20199;-89
2024/02/27 01:58:09;;;;;;;9.90;8.07;;;5.20;89.10;;;;;;5028016;28;20219;-89
2024/02/27 02:00:36;;;;;;;10.47;7.90;;;5.20;89.10;;;;;;5021017;28;20937;-89
2024/02/27 02:03:04;;;;;;;10.67;8.20;;;5.20;89.10;;;;;;5027348;28;20669;-89
2024/02/27 02:05:31;;;;;;;10.07;7.77;;;5.20;89.10;;;;;;5029162;28;20208;-89
2024/02/27 02:07:59;;;;;;;11.67;8.40;;;5.20;89.70;;;;;;5008356;28;20208;-88
2024/02/27 02:10:28;;;;;;;10.80;8.07;;;5.30;89.10;;;;;;4996337;28;20550;-89
2024/02/27 02:12:57;;;;;;;11.03;8.67;;;5.40;89.30;;;;;;5028683;28;20233;-89
2024/02/27 02:15:24;;;;;;;11.60;8.23;;;5.40;89.20;;;;;;5028496;28;20200;-89
2024/02/27 02:17:52;;;;;;;11.70;8.70;;;5.40;89.30;;;;;;5011258;28;20202;-88
2024/02/27 02:20:20;;;;;;;12.50;8.63;;;5.30;89.10;;;;;;5026768;28;20213;-89
2024/02/27 02:22:47;;;;;;;11.80;9.27;;;5.20;89.10;;;;;;5011453;28;20194;-89
2024/02/27 02:25:16;;;;;;;12.27;8.73;;;5.10;89.10;;;;;;5031779;28;20199;-89
2024/02/27 02:27:44;;;;;;;11.23;8.87;;;5.00;89.00;;;;;;5026128;28;20195;-89
2024/02/27 02:30:12;;;;;;;11.57;8.83;;;5.00;89.80;;;;;;5032458;28;20202;-88
2024/02/27 02:32:47;;;;;;;11.37;8.97;;;4.90;90.00;;;;;;5021418;28;20715;-89
2024/02/27 02:35:14;;;;;;;11.60;8.80;;;4.90;90.10;;;;;;5028667;28;20229;-89
2024/02/27 02:37:47;;;;;;;10.77;8.73;;;4.90;90.10;;;;;;5014556;28;20289;-90
2024/02/27 02:40:14;;;;;;;11.80;8.67;;;4.90;90.00;;;;;;5024741;28;20726;-90
2024/02/27 02:42:41;;;;;;;11.27;9.13;;;4.90;90.20;;;;;;5024316;28;20222;-89
2024/02/27 02:45:09;;;;;;;12.53;9.47;;;4.90;90.20;;;;;;5032013;28;20218;-88
2024/02/27 02:47:35;;;;;;;11.87;9.10;;;5.00;90.00;;;;;;5024874;28;20202;-89
2024/02/27 02:50:02;;;;;;;12.93;8.73;;;5.10;89.00;;;;;;5030302;28;20201;-89
2024/02/27 02:52:29;;;;;;;12.37;8.90;;;5.10;89.00;;;;;;5025630;28;20717;-89
2024/02/27 02:54:58;;;;;;;12.57;9.20;;;5.00;89.00;;;;;;5018680;28;20673;-89
2024/02/27 02:57:25;;;;;;;11.60;8.60;;;5.00;89.70;;;;;;5027502;28;20258;-88
2024/02/27 02:59:54;;;;;;;12.47;8.60;;;5.00;89.70;;;;;;5030626;28;20203;-89
2024/02/27 03:02:21;;;;;;;12.27;8.90;;;5.00;89.70;;;;;;5013973;28;20210;-89
2024/02/27 03:04:48;;;;;;;11.23;9.10;;;4.90;90.10;;;;;;5016293;28;20671;-89
2024/02/27 03:07:15;;;;;;;12.43;9.30;;;4.90;90.60;;;;;;5030817;28;20195;-89
2024/02/27 03:09:43;;;;;;;13.10;8.80;;;5.10;90.70;;;;;;5023492;28;20211;-89
2024/02/27 03:12:11;;;;;;;13.33;9.00;;;5.10;90.00;;;;;;4996186;28;20286;-90
2024/02/27 03:14:45;;;;;;;11.73;8.87;;;5.00;89.20;;;;;;5008841;28;20557;-88
2024/02/27 03:17:13;;;;;;;11.73;8.57;;;5.00;90.10;;;;;;5014100;28;20613;-89
2024/02/27 03:19:40;;;;;;;12.73;9.50;;;4.90;90.20;;;;;;5028302;28;20213;-90
2024/02/27 03:22:08;;;;;;;12.60;9.10;;;4.90;90.40;;;;;;5012292;28;20229;-88
2024/02/27 03:24:35;;;;;;;13.40;9.37;;;4.80;90.40;;;;;;5023602;28;20321;-89
2024/02/27 03:27:01;;;;;;;13.03;10.00;;;4.80;90.70;;;;;;5007304;28;20642;-90
2024/02/27 03:29:30;;;;;;;10.90;8.70;;;4.60;91.00;;;;;;5027517;28;20198;-89
2024/02/27 03:31:57;;;;;;;12.77;9.57;;;4.60;91.30;;;;;;5030581;28;20233;-89
2024/02/27 03:34:26;;;;;;;11.87;9.30;;;4.60;91.20;;;;;;5026378;28;20296;-89
2024/02/27 03:36:53;;;;;;;12.93;9.77;;;4.70;91.70;;;;;;5028173;28;20209;-89
2024/02/27 03:39:20;;;;;;;11.27;8.77;;;4.70;91.40;;;;;;5007642;28;20215;-90
2024/02/27 03:41:47;;;;;;;13.00;9.13;;;4.70;91.40;;;;;;5022110;28;20213;-89
2024/02/27 03:44:13;;;;;;;12.00;9.83;;;4.70;91.40;;;;;;5025080;28;20204;-89
2024/02/27 03:46:42;;;;;;;14.30;9.37;;;4.60;91.40;;;;;;5026856;28;20216;-89
2024/02/27 03:49:09;;;;;;;11.03;8.73;;;4.60;91.40;;;;;;5010941;28;20202;-89
2024/02/27 03:51:36;;;;;;;13.70;9.90;;;4.60;91.80;;;;;;5028761;28;20195;-90
2024/02/27 03:54:03;;;;;;;12.50;9.97;;;4.60;92.00;;;;;;5019087;28;20563;-89
2024/02/27 03:56:30;;;;;;;16.07;9.83;;;4.60;91.60;;;;;;5008151;28;20230;-89
2024/02/27 03:58:57;;;;;;;13.50;9.60;;;4.60;91.60;;;;;;5023525;28;20214;-89
2024/02/27 04:01:24;;;;;;;12.17;9.33;;;4.70;91.30;;;;;;5011359;28;20199;-90
2024/02/27 04:03:53;;;;;;;13.53;9.77;;;4.60;91.20;;;;;;5012009;28;20233;-89
2024/02/27 04:06:20;;;;;;;14.23;10.27;;;4.60;91.50;;;;;;5011628;28;20677;-89
2024/02/27 04:08:47;;;;;;;12.40;9.37;;;4.80;91.30;;;;;;5009719;28;20210;-89
2024/02/27 04:11:14;;;;;;;12.27;10.07;;;4.70;91.20;;;;;;5030134;28;20198;-90
2024/02/27 04:13:40;;;;;;;13.47;10.27;;;4.70;91.10;;;;;;5029726;28;20750;-89
2024/02/27 04:16:08;;;;;;;14.53;10.37;;;4.80;91.00;;;;;;5029912;28;20198;-89
2024/02/27 04:18:34;;;;;;;13.10;10.07;;;4.60;91.20;;;;;;5018602;28;20203;-89
2024/02/27 04:21:03;;;;;;;12.80;9.97;;;4.60;91.30;;;;;;5012546;28;20195;-90
2024/02/27 04:23:30;;;;;;;14.77;10.20;;;4.60;91.40;;;;;;5025606;28;20249;-89
2024/02/27 04:25:57;;;;;;;13.87;10.07;;;4.60;91.40;;;;;;5025857;28;20696;-89
2024/02/27 04:28:24;;;;;;;13.70;9.67;;;4.60;91.40;;;;;;5026065;28;20202;-89
2024/02/27 04:30:51;;;;;;;15.10;10.50;;;4.60;91.10;;;;;;5026013;28;20209;-88
2024/02/27 04:33:18;;;;;;;13.17;10.43;;;4.60;91.20;;;;;;5009527;28;20219;-89
2024/02/27 04:35:45;;;;;;;12.87;10.13;;;4.50;91.50;;;;;;5030230;28;20206;-89
2024/02/27 04:38:13;;;;;;;13.63;10.43;;;4.70;91.50;;;;;;5028248;28;20205;-90
2024/02/27 04:40:41;;;;;;;12.60;9.17;;;4.70;91.20;;;;;;5019644;28;20210;-89
2024/02/27 04:43:07;;;;;;;15.90;10.47;;;4.60;91.40;;;;;;5007989;28;20203;-89
2024/02/27 04:45:34;;;;;;;13.70;10.37;;;4.60;91.50;;;;;;5027776;28;20207;-90
2024/02/27 04:48:03;;;;;;;13.73;10.60;;;4.70;91.40;;;;;;5002432;28;20195;-89
2024/02/27 04:50:30;;;;;;;13.77;10.27;;;4.70;91.30;;;;;;5008778;28;20282;-89
2024/02/27 04:52:57;;;;;;;15.00;10.17;;;4.60;91.40;;;;;;5024689;28;20816;-90
2024/02/27 04:55:26;;;;;;;13.57;9.97;;;4.60;91.50;;;;;;5026662;28;20556;-89
2024/02/27 04:57:54;;;;;;;14.63;10.70;;;4.70;91.90;;;;;;5026800;28;20602;-89
2024/02/27 05:00:22;;;;;;;13.60;10.33;;;4.70;91.60;;;;;;5024198;28;20201;-90
2024/02/27 05:02:48;;;;;;;13.97;10.03;;;4.70;91.60;;;;;;5025196;28;20207;-89
2024/02/27 05:05:15;;;;;;;14.60;10.23;;;4.80;91.10;;;;;;4991220;28;20286;-90
2024/02/27 05:07:42;;;;;;;15.37;10.13;;;4.70;91.10;;;;;;5030289;28;20210;-88
2024/02/27 05:10:10;;;;;;;14.87;10.63;;;4.70;91.10;;;;;;5009293;28;20202;-89
2024/02/27 05:12:38;;;;;;;17.07;10.57;;;4.70;91.10;;;;;;5006723;28;20235;-90
2024/02/27 05:15:06;;;;;;;14.23;10.47;;;4.70;90.90;;;;;;5024672;28;20245;-89
2024/02/27 05:17:33;;;;;;;14.53;10.77;;;4.60;90.90;;;;;;5024047;28;20214;-90
2024/02/27 05:19:59;;;;;;;16.83;10.43;;;4.60;91.10;;;;;;5026714;28;20656;-90
2024/02/27 05:22:26;;;;;;;15.40;10.33;;;4.60;91.10;;;;;;5006581;28;20198;-88
2024/02/27 05:24:53;;;;;;;15.53;10.60;;;4.70;91.10;;;;;;5023771;28;20207;-91
2024/02/27 05:27:20;;;;;;;14.23;10.10;;;4.90;91.10;;;;;;5024729;28;20198;-89
2024/02/27 05:29:48;;;;;;;16.50;10.47;;;5.00;90.90;;;;;;5024413;28;20657;-88
2024/02/27 05:32:15;;;;;;;14.87;10.20;;;5.10;90.80;;;;;;5003673;28;20199;-89
2024/02/27 05:34:42;;;;;;;16.33;10.17;;;5.10;89.00;;;;;;5033698;28;20209;-91
2024/02/27 05:37:09;;;;;;;14.30;10.47;;;5.20;90.00;;;;;;5018449;28;20271;-92
2024/02/27 05:39:36;;;;;;;13.90;9.97;;;5.10;90.30;;;;;;5029121;28;20203;-93
2024/02/27 05:44:38;;;;;;;12.90;10.27;;;4.90;90.60;;;;;;5954115;22;20220;-93
2024/02/27 05:47:06;;;;;;;15.50;10.63;;;5.00;90.70;;;;;;5286974;22;20229;-93
2024/02/27 05:49:33;;;;;;;15.33;10.40;;;5.00;90.50;;;;;;5002700;28;20207;-91
2024/02/27 05:52:00;;;;;;;15.57;10.40;;;4.90;90.60;;;;;;5037796;28;20221;-90
2024/02/27 06:18:42;;;;;;;17.17;11.47;;;4.60;92.00;;;;;;6048623;23;20194;-92
2024/02/27 06:24:42;;;;;;;16.13;11.63;;;4.60;91.80;;;;;;5014809;28;20194;-91
2024/02/27 06:27:10;;;;;;;15.70;10.97;;;4.60;91.60;;;;;;5017894;28;20261;-92
2024/02/27 06:29:37;;;;;;;16.87;11.37;;;4.70;92.20;;;;;;5000473;28;20195;-92
2024/02/27 06:53:04;;;;;;;19.40;11.57;;;5.00;91.20;;;;;;5016312;28;20215;-92
2024/02/27 06:55:56;;;;;;;18.07;12.20;;;5.10;91.00;;;;;;5018477;28;20180;-91
2024/02/27 06:58:23;;;;;;;20.23;13.00;;;5.10;90.50;;;;;;4980940;28;20262;-91
2024/02/27 07:00:50;;;;;;;19.33;12.77;;;5.10;90.80;;;;;;4997173;28;20189;-91
2024/02/27 07:03:17;;;;;;;21.43;12.93;;;5.20;90.90;;;;;;4994790;28;20211;-93
2024/02/27 07:05:44;;;;;;;20.30;13.53;;;5.20;90.60;;;;;;4979004;28;20206;-91
2024/02/27 07:08:12;;;;;;;19.43;13.07;;;5.20;90.60;;;;;;4992528;28;20587;-93
2024/02/27 07:10:40;;;;;;;18.23;13.20;;;5.20;91.00;;;;;;4993787;28;20651;-94
2024/02/27 07:13:08;;;;;;;20.57;13.47;;;5.40;90.60;;;;;;4997115;28;20232;-96
2024/02/27 07:15:35;;;;;;;20.93;13.23;;;5.30;89.30;;;;;;4979001;28;20211;-91
2024/02/27 07:18:03;;;;;;;17.30;12.60;;;5.30;90.60;;;;;;4996816;28;20548;-91
2024/02/27 07:20:30;;;;;;;19.33;13.45;;;5.50;90.80;;;;;;4996091;28;20212;-91
2024/02/27 07:22:59;;;;;;;19.83;13.93;;;5.70;89.40;;;;;;4978703;28;20200;-91
2024/02/27 07:26:19;;;;;;;21.13;13.93;;;5.50;89.30;;;;;;4996015;28;20189;-91
2024/02/27 07:29:01;;;;;;;18.27;12.90;;;5.50;89.30;;;;;;4959078;28;20208;-90
2024/02/27 07:31:29;;;;;;;20.38;13.70;;;5.70;89.40;;;;;;4977097;28;20635;-91
2024/02/27 07:34:00;;;;;;;18.80;13.50;;;5.70;87.70;;;;;;4958827;28;20239;-91
2024/02/27 07:36:27;;;;;;;20.98;14.50;;;5.70;87.20;;;;;;4976533;28;20193;-91
2024/02/27 07:38:54;;;;;;;21.80;14.70;;;5.80;86.70;;;;;;4995699;28;20200;-91
2024/02/27 07:41:24;;;;;;;22.08;14.38;;;5.80;86.30;;;;;;4991909;28;20219;-91
2024/02/27 07:43:54;;;;;;;26.58;15.20;;;5.80;87.20;;;;;;4983117;28;20196;-91
2024/02/27 07:50:38;;;;;;;21.63;14.63;;;6.00;85.80;;;;;;4996623;28;20180;-90
2024/02/27 15:12:28;;;;;;;15.57;9.77;;;9.20;52.80;;;;;;4938918;29;20248;-89
2024/02/27 15:14:56;;;;;;;15.38;10.77;;;9.20;53.40;;;;;;4919461;29;20230;-91
2024/02/27 16:01:45;;;;;;;20.65;12.07;;;8.40;64.60;;;;;;4975659;28;20240;-92
2024/02/27 16:16:47;;;;;;;14.82;10.95;;;8.30;67.60;;;;;;4964036;29;20216;-91
2024/02/27 16:45:31;;;;;;;20.20;12.02;;;7.80;74.00;;;;;;4971459;29;20216;-95
2024/02/27 19:00:22;;;;;;;23.33;14.82;;;6.50;92.30;;;;;;6185302;23;20191;31
